sensor_id;sensor_type;location;lat;lon;timestamp;P1;durP1;ratioP1;P2;durP2;ratioP2
37559;SDS011;23398;50.928;7.084;2023-04-01T00:01:09;0.88;;;0.68;;
37559;SDS011;23398;50.928;7.084;2023-04-01T00:03:37;2.05;;;0.60;;
37559;SDS011;23398;50.928;7.084;2023-04-01T00:06:02;0.65;;;0.50;;
37559;SDS011;23398;50.928;7.084;2023-04-01T00:08:28;0.82;;;0.55;;
37559;SDS011;23398;50.928;7.084;2023-04-01T00:10:54;1.02;;;0.60;;
37559;SDS011;23398;50.928;7.084;2023-04-01T00:13:20;1.13;;;0.70;;
37559;SDS011;23398;50.928;7.084;2023-04-01T00:15:47;0.82;;;0.50;;
37559;SDS011;23398;50.928;7.084;2023-04-01T00:18:13;0.88;;;0.55;;
37559;SDS011;23398;50.928;7.084;2023-04-01T00:20:39;1.33;;;0.50;;
37559;SDS011;23398;50.928;7.084;2023-04-01T00:23:08;0.90;;;0.55;;
37559;SDS011;23398;50.928;7.084;2023-04-01T00:25:34;1.65;;;0.70;;
37559;SDS011;23398;50.928;7.084;2023-04-01T00:28:00;1.98;;;0.50;;
37559;SDS011;23398;50.928;7.084;2023-04-01T00:30:25;0.73;;;0.50;;
37559;SDS011;23398;50.928;7.084;2023-04-01T00:32:51;0.60;;;0.50;;
37559;SDS011;23398;50.928;7.084;2023-04-01T00:35:18;0.80;;;0.60;;
37559;SDS011;23398;50.928;7.084;2023-04-01T00:37:43;1.00;;;0.50;;
37559;SDS011;23398;50.928;7.084;2023-04-01T00:40:20;0.88;;;0.47;;
37559;SDS011;23398;50.928;7.084;2023-04-01T00:42:52;0.68;;;0.40;;
37559;SDS011;23398;50.928;7.084;2023-04-01T00:45:25;0.50;;;0.40;;
37559;SDS011;23398;50.928;7.084;2023-04-01T00:47:54;0.40;;;0.40;;
37559;SDS011;23398;50.928;7.084;2023-04-01T00:50:22;1.20;;;0.73;;
37559;SDS011;23398;50.928;7.084;2023-04-01T00:52:49;0.50;;;0.50;;
37559;SDS011;23398;50.928;7.084;2023-04-01T00:55:15;0.95;;;0.60;;
37559;SDS011;23398;50.928;7.084;2023-04-01T00:57:43;0.50;;;0.50;;
37559;SDS011;23398;50.928;7.084;2023-04-01T01:00:13;0.57;;;0.50;;
37559;SDS011;23398;50.928;7.084;2023-04-01T01:02:41;0.68;;;0.40;;
37559;SDS011;23398;50.928;7.084;2023-04-01T01:05:07;0.93;;;0.50;;
37559;SDS011;23398;50.928;7.084;2023-04-01T01:10:32;1.42;;;0.57;;
37559;SDS011;23398;50.928;7.084;2023-04-01T01:13:03;1.00;;;0.57;;
37559;SDS011;23398;50.928;7.084;2023-04-01T01:15:43;0.32;;;0.30;;
37559;SDS011;23398;50.928;7.084;2023-04-01T01:26:53;1.17;;;0.40;;
37559;SDS011;23398;50.928;7.084;2023-04-01T01:32:03;1.15;;;0.60;;
37559;SDS011;23398;50.928;7.084;2023-04-01T01:37:56;1.10;;;0.60;;
37559;SDS011;23398;50.928;7.084;2023-04-01T01:40:28;0.85;;;0.50;;
37559;SDS011;23398;50.928;7.084;2023-04-01T01:42:59;1.42;;;0.60;;
37559;SDS011;23398;50.928;7.084;2023-04-01T01:45:29;0.40;;;0.35;;
37559;SDS011;23398;50.928;7.084;2023-04-01T01:47:57;0.40;;;0.40;;
37559;SDS011;23398;50.928;7.084;2023-04-01T01:50:25;1.08;;;0.50;;
37559;SDS011;23398;50.928;7.084;2023-04-01T01:53:00;0.77;;;0.68;;
37559;SDS011;23398;50.928;7.084;2023-04-01T01:57:52;0.88;;;0.50;;
37559;SDS011;23398;50.928;7.084;2023-04-01T02:00:19;0.57;;;0.57;;
37559;SDS011;23398;50.928;7.084;2023-04-01T02:02:46;0.85;;;0.43;;
37559;SDS011;23398;50.928;7.084;2023-04-01T02:05:21;0.40;;;0.40;;
37559;SDS011;23398;50.928;7.084;2023-04-01T02:08:08;0.50;;;0.40;;
37559;SDS011;23398;50.928;7.084;2023-04-01T02:10:47;0.80;;;0.43;;
37559;SDS011;23398;50.928;7.084;2023-04-01T02:16:47;1.25;;;0.80;;
37559;SDS011;23398;50.928;7.084;2023-04-01T02:19:19;0.30;;;0.30;;
37559;SDS011;23398;50.928;7.084;2023-04-01T02:21:49;1.33;;;0.50;;
37559;SDS011;23398;50.928;7.084;2023-04-01T02:24:18;0.52;;;0.40;;
37559;SDS011;23398;50.928;7.084;2023-04-01T02:26:47;0.95;;;0.68;;
37559;SDS011;23398;50.928;7.084;2023-04-01T02:29:14;0.47;;;0.40;;
37559;SDS011;23398;50.928;7.084;2023-04-01T02:31:41;1.85;;;0.60;;
37559;SDS011;23398;50.928;7.084;2023-04-01T02:34:07;1.00;;;0.52;;
37559;SDS011;23398;50.928;7.084;2023-04-01T02:36:34;0.75;;;0.40;;
37559;SDS011;23398;50.928;7.084;2023-04-01T02:39:01;0.55;;;0.50;;
37559;SDS011;23398;50.928;7.084;2023-04-01T02:41:29;0.70;;;0.43;;
37559;SDS011;23398;50.928;7.084;2023-04-01T02:43:55;0.40;;;0.40;;
37559;SDS011;23398;50.928;7.084;2023-04-01T02:46:23;0.68;;;0.40;;
37559;SDS011;23398;50.928;7.084;2023-04-01T02:48:49;0.88;;;0.55;;
37559;SDS011;23398;50.928;7.084;2023-04-01T02:51:14;0.85;;;0.52;;
37559;SDS011;23398;50.928;7.084;2023-04-01T02:53:40;0.82;;;0.50;;
37559;SDS011;23398;50.928;7.084;2023-04-01T02:56:06;0.55;;;0.50;;
37559;SDS011;23398;50.928;7.084;2023-04-01T02:58:31;0.60;;;0.60;;
37559;SDS011;23398;50.928;7.084;2023-04-01T03:00:57;0.60;;;0.50;;
37559;SDS011;23398;50.928;7.084;2023-04-01T03:03:22;0.68;;;0.50;;
37559;SDS011;23398;50.928;7.084;2023-04-01T03:05:48;0.68;;;0.45;;
37559;SDS011;23398;50.928;7.084;2023-04-01T03:08:13;0.95;;;0.60;;
37559;SDS011;23398;50.928;7.084;2023-04-01T03:10:39;0.40;;;0.40;;
37559;SDS011;23398;50.928;7.084;2023-04-01T03:13:04;0.77;;;0.43;;
37559;SDS011;23398;50.928;7.084;2023-04-01T03:15:31;0.50;;;0.40;;
37559;SDS011;23398;50.928;7.084;2023-04-01T03:17:56;0.82;;;0.45;;
37559;SDS011;23398;50.928;7.084;2023-04-01T03:20:22;0.32;;;0.32;;
37559;SDS011;23398;50.928;7.084;2023-04-01T03:22:48;1.02;;;0.50;;
37559;SDS011;23398;50.928;7.084;2023-04-01T03:25:13;0.43;;;0.40;;
37559;SDS011;23398;50.928;7.084;2023-04-01T03:27:39;0.52;;;0.40;;
37559;SDS011;23398;50.928;7.084;2023-04-01T03:30:05;0.50;;;0.40;;
37559;SDS011;23398;50.928;7.084;2023-04-01T03:32:31;0.50;;;0.40;;
37559;SDS011;23398;50.928;7.084;2023-04-01T03:34:57;0.60;;;0.50;;
37559;SDS011;23398;50.928;7.084;2023-04-01T03:37:23;0.43;;;0.40;;
37559;SDS011;23398;50.928;7.084;2023-04-01T03:39:49;0.90;;;0.50;;
37559;SDS011;23398;50.928;7.084;2023-04-01T03:42:15;0.35;;;0.32;;
37559;SDS011;23398;50.928;7.084;2023-04-01T03:44:41;0.50;;;0.43;;
37559;SDS011;23398;50.928;7.084;2023-04-01T03:47:06;0.30;;;0.30;;
37559;SDS011;23398;50.928;7.084;2023-04-01T03:49:34;0.45;;;0.40;;
37559;SDS011;23398;50.928;7.084;2023-04-01T03:52:00;0.43;;;0.40;;
37559;SDS011;23398;50.928;7.084;2023-04-01T03:54:25;0.43;;;0.30;;
37559;SDS011;23398;50.928;7.084;2023-04-01T03:56:51;0.40;;;0.40;;
37559;SDS011;23398;50.928;7.084;2023-04-01T03:59:16;0.60;;;0.43;;
37559;SDS011;23398;50.928;7.084;2023-04-01T04:01:42;0.93;;;0.40;;
37559;SDS011;23398;50.928;7.084;2023-04-01T04:04:10;0.52;;;0.43;;
37559;SDS011;23398;50.928;7.084;2023-04-01T04:06:37;0.30;;;0.30;;
37559;SDS011;23398;50.928;7.084;2023-04-01T04:09:03;0.47;;;0.30;;
37559;SDS011;23398;50.928;7.084;2023-04-01T04:11:30;0.55;;;0.50;;
37559;SDS011;23398;50.928;7.084;2023-04-01T04:13:56;0.28;;;0.25;;
37559;SDS011;23398;50.928;7.084;2023-04-01T04:16:22;0.60;;;0.38;;
37559;SDS011;23398;50.928;7.084;2023-04-01T04:18:47;0.80;;;0.50;;
37559;SDS011;23398;50.928;7.084;2023-04-01T04:21:13;0.40;;;0.40;;
37559;SDS011;23398;50.928;7.084;2023-04-01T04:23:40;0.30;;;0.30;;
37559;SDS011;23398;50.928;7.084;2023-04-01T04:26:07;0.63;;;0.40;;
37559;SDS011;23398;50.928;7.084;2023-04-01T04:28:35;1.15;;;0.60;;
37559;SDS011;23398;50.928;7.084;2023-04-01T04:31:01;2.05;;;0.75;;
37559;SDS011;23398;50.928;7.084;2023-04-01T04:33:27;1.30;;;0.80;;
37559;SDS011;23398;50.928;7.084;2023-04-01T04:35:54;0.70;;;0.70;;
37559;SDS011;23398;50.928;7.084;2023-04-01T04:38:21;1.38;;;0.60;;
37559;SDS011;23398;50.928;7.084;2023-04-01T04:40:47;0.85;;;0.52;;
37559;SDS011;23398;50.928;7.084;2023-04-01T04:43:14;0.40;;;0.40;;
37559;SDS011;23398;50.928;7.084;2023-04-01T04:45:40;0.65;;;0.60;;
37559;SDS011;23398;50.928;7.084;2023-04-01T04:48:10;1.30;;;0.40;;
37559;SDS011;23398;50.928;7.084;2023-04-01T04:50:43;0.40;;;0.40;;
37559;SDS011;23398;50.928;7.084;2023-04-01T04:53:16;0.28;;;0.28;;
37559;SDS011;23398;50.928;7.084;2023-04-01T04:55:44;0.50;;;0.50;;
37559;SDS011;23398;50.928;7.084;2023-04-01T04:58:11;2.13;;;0.93;;
37559;SDS011;23398;50.928;7.084;2023-04-01T05:00:37;0.70;;;0.70;;
37559;SDS011;23398;50.928;7.084;2023-04-01T05:03:03;0.40;;;0.40;;
37559;SDS011;23398;50.928;7.084;2023-04-01T05:05:28;0.38;;;0.32;;
37559;SDS011;23398;50.928;7.084;2023-04-01T05:07:54;0.50;;;0.50;;
37559;SDS011;23398;50.928;7.084;2023-04-01T05:10:20;0.40;;;0.40;;
37559;SDS011;23398;50.928;7.084;2023-04-01T05:12:45;0.40;;;0.40;;
37559;SDS011;23398;50.928;7.084;2023-04-01T05:15:11;0.77;;;0.52;;
37559;SDS011;23398;50.928;7.084;2023-04-01T05:17:37;1.55;;;0.47;;
37559;SDS011;23398;50.928;7.084;2023-04-01T05:20:02;0.30;;;0.30;;
37559;SDS011;23398;50.928;7.084;2023-04-01T05:22:28;0.47;;;0.47;;
37559;SDS011;23398;50.928;7.084;2023-04-01T05:24:54;0.40;;;0.40;;
37559;SDS011;23398;50.928;7.084;2023-04-01T05:27:20;1.00;;;0.70;;
37559;SDS011;23398;50.928;7.084;2023-04-01T05:29:45;0.50;;;0.50;;
37559;SDS011;23398;50.928;7.084;2023-04-01T05:32:11;0.50;;;0.50;;
37559;SDS011;23398;50.928;7.084;2023-04-01T05:34:36;0.75;;;0.50;;
37559;SDS011;23398;50.928;7.084;2023-04-01T05:37:02;1.05;;;0.45;;
37559;SDS011;23398;50.928;7.084;2023-04-01T05:39:27;1.00;;;0.77;;
37559;SDS011;23398;50.928;7.084;2023-04-01T05:41:53;0.63;;;0.50;;
37559;SDS011;23398;50.928;7.084;2023-04-01T05:44:19;0.70;;;0.70;;
37559;SDS011;23398;50.928;7.084;2023-04-01T05:46:44;1.00;;;0.90;;
37559;SDS011;23398;50.928;7.084;2023-04-01T05:49:10;0.95;;;0.68;;
37559;SDS011;23398;50.928;7.084;2023-04-01T05:51:35;0.63;;;0.60;;
37559;SDS011;23398;50.928;7.084;2023-04-01T05:54:01;0.60;;;0.60;;
37559;SDS011;23398;50.928;7.084;2023-04-01T05:56:28;1.75;;;0.70;;
37559;SDS011;23398;50.928;7.084;2023-04-01T05:58:54;0.75;;;0.70;;
37559;SDS011;23398;50.928;7.084;2023-04-01T06:01:20;1.17;;;0.80;;
37559;SDS011;23398;50.928;7.084;2023-04-01T06:03:46;1.15;;;0.82;;
37559;SDS011;23398;50.928;7.084;2023-04-01T06:06:15;0.60;;;0.60;;
37559;SDS011;23398;50.928;7.084;2023-04-01T06:08:45;1.83;;;0.90;;
37559;SDS011;23398;50.928;7.084;2023-04-01T06:13:52;1.58;;;0.75;;
37559;SDS011;23398;50.928;7.084;2023-04-01T06:17:15;0.93;;;0.82;;
37559;SDS011;23398;50.928;7.084;2023-04-01T06:22:56;1.25;;;0.95;;
37559;SDS011;23398;50.928;7.084;2023-04-01T06:30:47;1.05;;;0.70;;
37559;SDS011;23398;50.928;7.084;2023-04-01T06:33:34;1.05;;;0.70;;
37559;SDS011;23398;50.928;7.084;2023-04-01T06:47:38;4.97;;;1.65;;
37559;SDS011;23398;50.928;7.084;2023-04-01T06:50:26;2.50;;;1.38;;
37559;SDS011;23398;50.928;7.084;2023-04-01T06:56:25;2.28;;;0.98;;
37559;SDS011;23398;50.928;7.084;2023-04-01T06:58:54;0.93;;;0.68;;
37559;SDS011;23398;50.928;7.084;2023-04-01T07:02:01;1.05;;;0.70;;
37559;SDS011;23398;50.928;7.084;2023-04-01T07:04:46;0.60;;;0.60;;
37559;SDS011;23398;50.928;7.084;2023-04-01T07:07:29;0.90;;;0.60;;
37559;SDS011;23398;50.928;7.084;2023-04-01T07:10:00;1.00;;;0.70;;
37559;SDS011;23398;50.928;7.084;2023-04-01T07:12:36;0.80;;;0.70;;
37559;SDS011;23398;50.928;7.084;2023-04-01T07:15:16;1.08;;;0.70;;
37559;SDS011;23398;50.928;7.084;2023-04-01T07:20:48;1.33;;;0.88;;
37559;SDS011;23398;50.928;7.084;2023-04-01T07:23:20;1.65;;;0.90;;
37559;SDS011;23398;50.928;7.084;2023-04-01T07:25:51;1.20;;;0.70;;
37559;SDS011;23398;50.928;7.084;2023-04-01T07:28:20;0.98;;;0.90;;
37559;SDS011;23398;50.928;7.084;2023-04-01T07:33:34;1.77;;;0.90;;
37559;SDS011;23398;50.928;7.084;2023-04-01T07:36:22;1.88;;;0.90;;
37559;SDS011;23398;50.928;7.084;2023-04-01T07:38:59;1.15;;;0.80;;
37559;SDS011;23398;50.928;7.084;2023-04-01T07:44:24;1.88;;;0.85;;
37559;SDS011;23398;50.928;7.084;2023-04-01T07:49:49;1.48;;;0.90;;
37559;SDS011;23398;50.928;7.084;2023-04-01T07:52:49;1.35;;;0.90;;
37559;SDS011;23398;50.928;7.084;2023-04-01T07:55:42;0.80;;;0.80;;
37559;SDS011;23398;50.928;7.084;2023-04-01T07:58:19;1.10;;;1.00;;
37559;SDS011;23398;50.928;7.084;2023-04-01T08:01:46;1.58;;;0.88;;
37559;SDS011;23398;50.928;7.084;2023-04-01T08:04:14;1.00;;;0.80;;
37559;SDS011;23398;50.928;7.084;2023-04-01T08:06:52;1.10;;;0.80;;
37559;SDS011;23398;50.928;7.084;2023-04-01T08:17:22;1.52;;;0.70;;
37559;SDS011;23398;50.928;7.084;2023-04-01T08:20:14;1.27;;;0.68;;
37559;SDS011;23398;50.928;7.084;2023-04-01T08:23:05;0.60;;;0.60;;
37559;SDS011;23398;50.928;7.084;2023-04-01T08:25:35;0.63;;;0.57;;
37559;SDS011;23398;50.928;7.084;2023-04-01T08:33:26;1.60;;;0.75;;
37559;SDS011;23398;50.928;7.084;2023-04-01T09:00:07;0.60;;;0.60;;
37559;SDS011;23398;50.928;7.084;2023-04-01T09:05:32;1.13;;;0.70;;
37559;SDS011;23398;50.928;7.084;2023-04-01T09:11:12;1.27;;;0.60;;
37559;SDS011;23398;50.928;7.084;2023-04-01T09:14:01;1.02;;;0.80;;
37559;SDS011;23398;50.928;7.084;2023-04-01T09:25:46;0.60;;;0.60;;
37559;SDS011;23398;50.928;7.084;2023-04-01T09:28:18;0.40;;;0.40;;
37559;SDS011;23398;50.928;7.084;2023-04-01T09:39:47;0.52;;;0.52;;
37559;SDS011;23398;50.928;7.084;2023-04-01T09:42:29;0.70;;;0.60;;
37559;SDS011;23398;50.928;7.084;2023-04-01T10:06:48;0.50;;;0.50;;
37559;SDS011;23398;50.928;7.084;2023-04-01T10:20:45;0.60;;;0.60;;
37559;SDS011;23398;50.928;7.084;2023-04-01T10:35:37;1.10;;;0.90;;
37559;SDS011;23398;50.928;7.084;2023-04-01T10:38:41;0.85;;;0.60;;
37559;SDS011;23398;50.928;7.084;2023-04-01T10:44:11;0.60;;;0.60;;
37559;SDS011;23398;50.928;7.084;2023-04-01T10:52:33;0.88;;;0.65;;
37559;SDS011;23398;50.928;7.084;2023-04-01T11:06:51;1.17;;;0.88;;
37559;SDS011;23398;50.928;7.084;2023-04-01T11:12:34;2.45;;;0.80;;
37559;SDS011;23398;50.928;7.084;2023-04-01T11:28:58;0.85;;;0.60;;
37559;SDS011;23398;50.928;7.084;2023-04-01T11:48:13;0.75;;;0.75;;
37559;SDS011;23398;50.928;7.084;2023-04-01T11:59:46;0.70;;;0.70;;
37559;SDS011;23398;50.928;7.084;2023-04-01T12:05:28;0.95;;;0.80;;
37559;SDS011;23398;50.928;7.084;2023-04-01T12:28:25;0.70;;;0.70;;
37559;SDS011;23398;50.928;7.084;2023-04-01T12:31:15;1.67;;;1.40;;
37559;SDS011;23398;50.928;7.084;2023-04-01T12:55:33;0.57;;;0.57;;
37559;SDS011;23398;50.928;7.084;2023-04-01T13:06:45;0.60;;;0.60;;
37559;SDS011;23398;50.928;7.084;2023-04-01T13:12:18;0.60;;;0.60;;
37559;SDS011;23398;50.928;7.084;2023-04-01T13:15:15;0.70;;;0.70;;
37559;SDS011;23398;50.928;7.084;2023-04-01T13:29:15;0.98;;;0.77;;
37559;SDS011;23398;50.928;7.084;2023-04-01T13:31:52;0.80;;;0.80;;
37559;SDS011;23398;50.928;7.084;2023-04-01T13:38:05;0.70;;;0.70;;
37559;SDS011;23398;50.928;7.084;2023-04-01T13:57:07;0.80;;;0.80;;
37559;SDS011;23398;50.928;7.084;2023-04-01T14:00:03;0.80;;;0.80;;
37559;SDS011;23398;50.928;7.084;2023-04-01T14:03:02;0.80;;;0.80;;
37559;SDS011;23398;50.928;7.084;2023-04-01T14:05:44;0.90;;;0.90;;
37559;SDS011;23398;50.928;7.084;2023-04-01T14:08:21;0.93;;;0.93;;
37559;SDS011;23398;50.928;7.084;2023-04-01T14:16:38;1.20;;;1.10;;
37559;SDS011;23398;50.928;7.084;2023-04-01T14:19:27;1.20;;;1.10;;
37559;SDS011;23398;50.928;7.084;2023-04-01T14:27:41;1.10;;;1.00;;
37559;SDS011;23398;50.928;7.084;2023-04-01T14:42:17;0.93;;;0.93;;
37559;SDS011;23398;50.928;7.084;2023-04-01T14:47:39;1.40;;;0.88;;
37559;SDS011;23398;50.928;7.084;2023-04-01T14:50:13;1.00;;;0.90;;
37559;SDS011;23398;50.928;7.084;2023-04-01T14:52:44;1.25;;;1.00;;
37559;SDS011;23398;50.928;7.084;2023-04-01T14:55:34;1.50;;;1.40;;
37559;SDS011;23398;50.928;7.084;2023-04-01T14:58:09;1.15;;;1.05;;
37559;SDS011;23398;50.928;7.084;2023-04-01T15:00:47;1.30;;;1.08;;
37559;SDS011;23398;50.928;7.084;2023-04-01T15:03:29;1.15;;;1.05;;
37559;SDS011;23398;50.928;7.084;2023-04-01T15:30:49;1.10;;;1.00;;
37559;SDS011;23398;50.928;7.084;2023-04-01T15:33:50;1.30;;;1.20;;
37559;SDS011;23398;50.928;7.084;2023-04-01T15:36:30;1.27;;;1.10;;
37559;SDS011;23398;50.928;7.084;2023-04-01T15:41:42;1.80;;;1.13;;
37559;SDS011;23398;50.928;7.084;2023-04-01T15:52:49;1.20;;;1.00;;
37559;SDS011;23398;50.928;7.084;2023-04-01T16:01:19;1.30;;;1.20;;
37559;SDS011;23398;50.928;7.084;2023-04-01T16:09:06;2.10;;;1.30;;
37559;SDS011;23398;50.928;7.084;2023-04-01T16:22:25;1.40;;;1.30;;
37559;SDS011;23398;50.928;7.084;2023-04-01T16:25:20;1.42;;;1.33;;
37559;SDS011;23398;50.928;7.084;2023-04-01T16:30:54;2.60;;;1.50;;
37559;SDS011;23398;50.928;7.084;2023-04-01T16:36:34;1.50;;;1.40;;
37559;SDS011;23398;50.928;7.084;2023-04-01T16:41:34;1.50;;;1.40;;
37559;SDS011;23398;50.928;7.084;2023-04-01T16:44:25;1.40;;;1.30;;
37559;SDS011;23398;50.928;7.084;2023-04-01T16:46:53;1.38;;;1.27;;
37559;SDS011;23398;50.928;7.084;2023-04-01T16:49:24;1.30;;;1.20;;
37559;SDS011;23398;50.928;7.084;2023-04-01T16:57:03;1.75;;;1.27;;
37559;SDS011;23398;50.928;7.084;2023-04-01T17:02:20;1.40;;;1.30;;
37559;SDS011;23398;50.928;7.084;2023-04-01T17:24:14;2.45;;;1.40;;
37559;SDS011;23398;50.928;7.084;2023-04-01T17:40:11;1.30;;;1.20;;
37559;SDS011;23398;50.928;7.084;2023-04-01T17:42:57;1.77;;;1.40;;
37559;SDS011;23398;50.928;7.084;2023-04-01T18:00:06;1.92;;;1.20;;
37559;SDS011;23398;50.928;7.084;2023-04-01T18:02:43;1.75;;;1.33;;
37559;SDS011;23398;50.928;7.084;2023-04-01T18:11:31;1.40;;;1.30;;
37559;SDS011;23398;50.928;7.084;2023-04-01T18:22:42;1.60;;;1.50;;
37559;SDS011;23398;50.928;7.084;2023-04-01T18:25:37;1.95;;;1.40;;
37559;SDS011;23398;50.928;7.084;2023-04-01T18:30:41;1.50;;;1.40;;
37559;SDS011;23398;50.928;7.084;2023-04-01T18:33:15;1.60;;;1.48;;
37559;SDS011;23398;50.928;7.084;2023-04-01T18:38:35;1.63;;;1.50;;
37559;SDS011;23398;50.928;7.084;2023-04-01T18:41:25;2.33;;;1.50;;
37559;SDS011;23398;50.928;7.084;2023-04-01T18:52:25;1.95;;;1.75;;
37559;SDS011;23398;50.928;7.084;2023-04-01T19:05:40;1.58;;;1.48;;
37559;SDS011;23398;50.928;7.084;2023-04-01T19:08:26;1.60;;;1.50;;
37559;SDS011;23398;50.928;7.084;2023-04-01T19:27:02;2.05;;;1.40;;
37559;SDS011;23398;50.928;7.084;2023-04-01T19:37:51;1.38;;;1.27;;
37559;SDS011;23398;50.928;7.084;2023-04-01T19:43:25;1.33;;;1.23;;
37559;SDS011;23398;50.928;7.084;2023-04-01T19:46:33;1.30;;;1.20;;
37559;SDS011;23398;50.928;7.084;2023-04-01T19:54:38;1.58;;;1.48;;
37559;SDS011;23398;50.928;7.084;2023-04-01T19:57:42;1.95;;;1.60;;
37559;SDS011;23398;50.928;7.084;2023-04-01T20:00:25;1.58;;;1.48;;
37559;SDS011;23398;50.928;7.084;2023-04-01T20:03:03;1.70;;;1.60;;
37559;SDS011;23398;50.928;7.084;2023-04-01T20:05:55;1.80;;;1.70;;
37559;SDS011;23398;50.928;7.084;2023-04-01T20:08:45;1.38;;;1.27;;
37559;SDS011;23398;50.928;7.084;2023-04-01T20:20:22;2.15;;;1.80;;
37559;SDS011;23398;50.928;7.084;2023-04-01T20:25:23;1.98;;;1.80;;
37559;SDS011;23398;50.928;7.084;2023-04-01T20:41:27;2.22;;;2.03;;
37559;SDS011;23398;50.928;7.084;2023-04-01T20:44:09;3.17;;;2.13;;
37559;SDS011;23398;50.928;7.084;2023-04-01T20:46:48;2.22;;;2.03;;
37559;SDS011;23398;50.928;7.084;2023-04-01T20:52:16;2.35;;;2.15;;
37559;SDS011;23398;50.928;7.084;2023-04-01T20:57:25;2.25;;;1.95;;
37559;SDS011;23398;50.928;7.084;2023-04-01T21:00:15;1.73;;;1.63;;
37559;SDS011;23398;50.928;7.084;2023-04-01T21:03:13;2.05;;;1.85;;
37559;SDS011;23398;50.928;7.084;2023-04-01T21:08:39;2.00;;;1.80;;
37559;SDS011;23398;50.928;7.084;2023-04-01T21:14:14;1.98;;;1.80;;
37559;SDS011;23398;50.928;7.084;2023-04-01T21:17:04;2.13;;;1.85;;
37559;SDS011;23398;50.928;7.084;2023-04-01T21:25:38;1.77;;;1.67;;
37559;SDS011;23398;50.928;7.084;2023-04-01T21:33:28;1.80;;;1.70;;
37559;SDS011;23398;50.928;7.084;2023-04-01T21:44:48;2.63;;;2.10;;
37559;SDS011;23398;50.928;7.084;2023-04-01T21:50:03;2.15;;;1.95;;
37559;SDS011;23398;50.928;7.084;2023-04-01T21:55:36;1.88;;;1.73;;
37559;SDS011;23398;50.928;7.084;2023-04-01T22:06:22;1.63;;;1.52;;
37559;SDS011;23398;50.928;7.084;2023-04-01T22:09:12;1.90;;;1.70;;
37559;SDS011;23398;50.928;7.084;2023-04-01T22:17:38;1.70;;;1.60;;
37559;SDS011;23398;50.928;7.084;2023-04-01T22:20:14;2.67;;;1.80;;
37559;SDS011;23398;50.928;7.084;2023-04-01T22:22:49;1.60;;;1.50;;
37559;SDS011;23398;50.928;7.084;2023-04-01T22:27:52;2.08;;;1.88;;
37559;SDS011;23398;50.928;7.084;2023-04-01T22:30:23;1.92;;;1.83;;
37559;SDS011;23398;50.928;7.084;2023-04-01T22:33:05;2.30;;;2.10;;
37559;SDS011;23398;50.928;7.084;2023-04-01T22:35:39;2.42;;;2.22;;
37559;SDS011;23398;50.928;7.084;2023-04-01T22:44:13;2.40;;;1.88;;
37559;SDS011;23398;50.928;7.084;2023-04-01T22:49:32;2.45;;;2.08;;
37559;SDS011;23398;50.928;7.084;2023-04-01T22:54:49;3.13;;;2.67;;
37559;SDS011;23398;50.928;7.084;2023-04-01T22:59:55;3.42;;;2.85;;
37559;SDS011;23398;50.928;7.084;2023-04-01T23:02:34;3.00;;;2.70;;
37559;SDS011;23398;50.928;7.084;2023-04-01T23:05:03;2.92;;;2.58;;
37559;SDS011;23398;50.928;7.084;2023-04-01T23:10:59;2.95;;;2.60;;
37559;SDS011;23398;50.928;7.084;2023-04-01T23:13:00;3.15;;;2.70;;
37559;SDS011;23398;50.928;7.084;2023-04-01T23:15:27;2.80;;;2.45;;
37559;SDS011;23398;50.928;7.084;2023-04-01T23:18:00;2.60;;;2.25;;
37559;SDS011;23398;50.928;7.084;2023-04-01T23:20:47;2.60;;;2.40;;
37559;SDS011;23398;50.928;7.084;2023-04-01T23:31:23;5.40;;;3.20;;
37559;SDS011;23398;50.928;7.084;2023-04-01T23:33:57;12.27;;;5.80;;
37559;SDS011;23398;50.928;7.084;2023-04-01T23:36:43;17.42;;;8.10;;
37559;SDS011;23398;50.928;7.084;2023-04-01T23:42:07;18.40;;;8.32;;
37559;SDS011;23398;50.928;7.084;2023-04-01T23:44:40;12.07;;;5.68;;
37559;SDS011;23398;50.928;7.084;2023-04-01T23:47:08;4.90;;;3.45;;
37559;SDS011;23398;50.928;7.084;2023-04-01T23:49:48;4.20;;;2.60;;
37559;SDS011;23398;50.928;7.084;2023-04-01T23:52:26;2.35;;;2.15;;
37559;SDS011;23398;50.928;7.084;2023-04-01T23:54:59;2.30;;;2.10;;
37559;SDS011;23398;50.928;7.084;2023-04-01T23:57:34;2.72;;;2.17;;
